createdAt,value
2022-11-25T00:08:42.714Z,34.20
2022-11-25T00:18:49.151Z,33.20
2022-11-25T00:28:55.298Z,32.60
2022-11-25T00:39:06.451Z,41.60
2022-11-25T00:49:14.856Z,37.50
2022-11-25T00:59:21.000Z,35.30
2022-11-25T01:09:26.845Z,30.30
2022-11-25T01:19:31.024Z,31.70
2022-11-25T01:29:36.744Z,28.00
2022-11-25T01:39:40.709Z,28.00
2022-11-25T01:50:02.878Z,27.00
2022-11-25T02:00:08.366Z,27.20
2022-11-25T02:10:29.106Z,25.70
2022-11-25T02:20:32.888Z,25.50
2022-11-25T02:30:36.793Z,26.60
2022-11-25T02:40:51.384Z,25.80
2022-11-25T02:50:56.208Z,26.70
2022-11-25T03:01:00.522Z,25.80
2022-11-25T03:11:05.178Z,31.20
2022-11-25T03:21:09.864Z,30.80
2022-11-25T03:31:13.671Z,33.60
2022-11-25T03:41:17.701Z,30.50
2022-11-25T03:51:21.572Z,29.60
2022-11-25T04:01:25.745Z,29.40
2022-11-25T04:11:48.589Z,28.20
2022-11-25T04:21:53.571Z,26.70
2022-11-25T04:31:57.669Z,26.10
2022-11-25T04:42:20.253Z,27.30
2022-11-25T04:52:24.335Z,25.30
2022-11-25T05:02:29.394Z,25.00
2022-11-25T05:12:49.010Z,25.60
2022-11-25T05:22:54.795Z,25.60
2022-11-25T05:32:59.210Z,25.60
2022-11-25T05:43:03.731Z,24.30
2022-11-25T05:53:08.591Z,25.10
2022-11-25T06:03:12.795Z,26.80
2022-11-25T06:13:16.958Z,26.00
2022-11-25T06:23:22.771Z,25.90
2022-11-25T06:33:27.243Z,28.70
2022-11-25T06:43:33.049Z,26.50
2022-11-25T06:53:37.740Z,25.50
2022-11-25T07:03:43.133Z,29.20
2022-11-25T07:13:50.428Z,33.80
2022-11-25T07:23:54.453Z,33.20
2022-11-25T07:34:04.453Z,37.40
2022-11-25T07:44:09.793Z,42.10
2022-11-25T07:54:39.736Z,35.60
2022-11-25T08:04:43.634Z,24.50
2022-11-25T08:14:47.420Z,29.70
2022-11-25T08:24:51.287Z,19.70
2022-11-25T08:34:55.077Z,24.70
2022-11-25T08:44:59.471Z,42.00
2022-11-25T08:55:04.252Z,28.20
2022-11-25T09:05:08.155Z,30.60
2022-11-25T09:15:12.534Z,35.80
2022-11-25T09:25:16.262Z,35.60
2022-11-25T09:35:21.417Z,33.50
2022-11-25T09:46:02.891Z,37.90
2022-11-25T09:56:20.000Z,32.90
2022-11-25T10:06:30.117Z,30.60
2022-11-25T10:16:40.044Z,31.70
2022-11-25T10:26:55.180Z,20.40
2022-11-25T10:37:02.580Z,12.60
2022-11-25T10:47:33.794Z,25.50
2022-11-25T10:57:37.695Z,25.50
2022-11-25T11:07:44.096Z,34.20
2022-11-25T11:17:48.935Z,19.30
2022-11-25T11:27:52.829Z,17.70
2022-11-25T11:38:07.971Z,23.30
2022-11-25T11:48:41.378Z,18.30
2022-11-25T11:58:51.716Z,24.70
2022-11-25T12:09:05.409Z,32.70
2022-11-25T12:19:33.959Z,39.80
2022-11-25T12:30:19.362Z,36.30
2022-11-25T12:40:47.994Z,19.40
2022-11-25T12:51:07.216Z,22.40
2022-11-25T13:01:37.933Z,24.90
2022-11-25T13:12:09.957Z,31.20
2022-11-25T13:22:24.003Z,28.70
2022-11-25T13:32:31.874Z,22.50
2022-11-25T13:52:57.343Z,21.70
2022-11-25T14:03:47.340Z,53.40
2022-11-25T14:14:09.650Z,42.30
2022-11-25T14:24:23.509Z,31.90
2022-11-25T14:34:57.817Z,35.30
2022-11-25T14:45:02.580Z,28.90
2022-11-25T14:55:07.478Z,25.70
2022-11-25T15:05:11.418Z,22.90
2022-11-25T15:15:16.319Z,27.40
2022-11-25T15:25:20.900Z,36.20
2022-11-25T15:35:26.814Z,35.50
2022-11-25T15:45:44.364Z,30.20
2022-11-25T15:55:48.349Z,30.50
2022-11-25T16:06:02.638Z,31.20
2022-11-25T16:16:41.180Z,31.00
2022-11-25T16:27:08.217Z,31.60
2022-11-25T16:37:12.736Z,33.70
2022-11-25T16:47:19.194Z,59.20
2022-11-25T16:57:23.635Z,46.20
2022-11-25T17:07:35.058Z,55.70
2022-11-25T17:17:40.918Z,71.20
2022-11-25T17:27:46.946Z,60.50
2022-11-25T17:37:51.446Z,46.60
2022-11-25T17:47:56.091Z,129.40
2022-11-25T17:58:02.110Z,63.00
2022-11-25T18:08:06.175Z,64.30
2022-11-25T18:18:28.399Z,59.70
2022-11-25T18:28:33.981Z,64.50
2022-11-25T18:38:39.079Z,80.60
2022-11-25T18:48:44.889Z,70.40
2022-11-25T18:58:52.379Z,68.70
2022-11-25T19:09:00.839Z,69.20
2022-11-25T19:19:05.708Z,73.20
2022-11-25T19:29:21.479Z,73.20
2022-11-25T19:39:29.719Z,67.80
2022-11-25T19:49:36.656Z,75.10
2022-11-25T19:59:41.948Z,72.90
2022-11-25T20:09:48.379Z,68.80
2022-11-25T20:19:55.218Z,72.40
2022-11-25T20:30:01.146Z,78.60
2022-11-25T20:40:16.907Z,65.50
2022-11-25T20:50:23.692Z,73.80
2022-11-25T21:00:29.414Z,75.40
2022-11-25T21:10:36.259Z,72.20
2022-11-25T21:30:47.409Z,75.10
2022-11-25T21:40:56.583Z,78.00
2022-11-25T21:51:00.759Z,67.70
2022-11-25T22:01:05.072Z,75.10
2022-11-25T22:11:14.002Z,64.90
2022-11-25T22:21:17.683Z,72.30
2022-11-25T22:31:28.072Z,72.50
2022-11-25T22:41:32.273Z,68.80
2022-11-25T22:51:36.503Z,59.30
2022-11-25T23:01:40.457Z,66.30
2022-11-25T23:11:45.458Z,71.90
2022-11-25T23:21:49.532Z,53.40
2022-11-25T23:31:53.755Z,61.40
2022-11-25T23:41:57.531Z,59.30
2022-11-25T23:52:07.521Z,56.90
